Eastern Hope — V7GV2 — position and weather

sailwx.info

Track history (hours):
 
Tides and Currents Weather Stations Pressure Air Temp Water Temp Dewpoint Dewpoint Depression Visibility Wind Speed Wind Dir Waves Ship Positions

Eastern Hope

Last reported at 2018-Jul-10 23:31 UTC. Time now 2018-Jul-21 15:29 UTC.
Position S 34°51' E 018°48'.
Warning: this ship's position is 10 days out of date.

Length 169 m; draft 9.8 m.

Type: Cargo ship. MMSI: 538005766.

Date/timePositionNaut miles runAvg speedWind from/ knotsBaromVisibWave heightAir tempDewpointWater temp
2018-Jul-10 23:31S 34°51' E 018°48'011.2
2018-Jul-10 23:30S 34°51' E 018°48'611.2
2018-Jul-10 23:00S 34°49' E 018°42'611.3
2018-Jul-10 22:27S 34°47' E 018°35'611.0
2018-Jul-10 21:53S 34°44' E 018°28'411.0
2018-Jul-10 21:30S 34°43' E 018°23'1510.5
2018-Jul-10 20:01S 34°37' E 018°06'410.0
2018-Jul-10 19:38S 34°35' E 018°01'310.3
2018-Jul-10 19:19S 34°33' E 017°58'710.3
2018-Jul-10 18:38S 34°28' E 017°53'210.7
2018-Jul-10 18:25S 34°26' E 017°51'510.6
2018-Jul-10 17:55S 34°22' E 017°47'511.0
2018-Jul-10 17:30S 34°18' E 017°44'611.5
2018-Jul-10 16:56S 34°13' E 017°39'1211.3
2018-Jul-10 15:51S 34°04' E 017°30'  
Track history (hours):
 
Tides and Currents Weather Stations Pressure Air Temp Water Temp Dewpoint Dewpoint Depression Visibility Wind Speed Wind Dir Waves Ship Positions

Eastern Hope

Last reported at 2018-Jul-10 23:31 UTC. Time now 2018-Jul-21 15:29 UTC.
Position S 34°51' E 018°48'.
Warning: this ship's position is 10 days out of date.

Length 169 m; draft 9.8 m.

Type: Cargo ship. MMSI: 538005766.

Date/timePositionNaut miles runAvg speedWind from/ knotsBaromVisibWave heightAir tempDewpointWater temp
2018-Jul-10 23:31S 34°51' E 018°48'011.2
2018-Jul-10 23:30S 34°51' E 018°48'611.2
2018-Jul-10 23:00S 34°49' E 018°42'611.3
2018-Jul-10 22:27S 34°47' E 018°35'611.0
2018-Jul-10 21:53S 34°44' E 018°28'411.0
2018-Jul-10 21:30S 34°43' E 018°23'1510.5
2018-Jul-10 20:01S 34°37' E 018°06'410.0
2018-Jul-10 19:38S 34°35' E 018°01'310.3
2018-Jul-10 19:19S 34°33' E 017°58'710.3
2018-Jul-10 18:38S 34°28' E 017°53'210.7
2018-Jul-10 18:25S 34°26' E 017°51'510.6
2018-Jul-10 17:55S 34°22' E 017°47'511.0
2018-Jul-10 17:30S 34°18' E 017°44'611.5
2018-Jul-10 16:56S 34°13' E 017°39'1211.3
2018-Jul-10 15:51S 34°04' E 017°30'  

Dump ship's entire track history